Time;durP1;ratioP1;P1;durP2;ratioP2;P2;SDS_P1;SDS_P2;PMS_P1;PMS_P2;Temp;Humidity;BMP_temperature;BMP_pressure;BME280_temperature;BME280_humidity;BME280_pressure;Samples;Min_cycle;Max_cycle;Signal;HPM_P1;HPM_P2
2023/06/10 00:00:50;;;;;;;;;;;;;;;32.55;32.58;97839.59;5076683;28;19917;-94
2023/06/10 00:03:17;;;;;;;;;;;;;;;32.68;32.57;97842.84;5076442;28;19977;-94
2023/06/10 00:05:43;;;;;;;;;;;;;;;32.56;32.70;97841.13;5075599;28;19924;-94
2023/06/10 00:08:10;;;;;;;;;;;;;;;32.43;32.78;97842.75;5073170;28;19924;-95
2023/06/10 00:10:37;;;;;;;;;;;;;;;32.24;33.43;97841.47;5070847;28;19932;-95
2023/06/10 00:13:04;;;;;;;;;;;;;;;32.27;33.42;97843.31;5070147;28;19921;-94
2023/06/10 00:15:30;;;;;;;;;;;;;;;31.95;33.36;97842.31;5074928;28;19916;-94
2023/06/10 00:17:56;;;;;;;;;;;;;;;32.24;33.03;97833.72;5074751;28;19932;-94
2023/06/10 00:20:23;;;;;;;;;;;;;;;32.55;32.76;97842.44;5076316;28;19995;-95
2023/06/10 00:22:49;;;;;;;;;;;;;;;32.73;32.64;97835.66;5065114;28;19917;-94
2023/06/10 00:25:15;;;;;;;;;;;;;;;32.50;32.93;97831.78;5072323;28;19924;-94
2023/06/10 00:27:41;;;;;;;;;;;;;;;32.28;33.43;97839.22;5075318;28;20004;-94
2023/06/10 00:30:08;;;;;;;;;;;;;;;32.45;33.11;97837.34;5071599;28;19923;-93
2023/06/10 00:32:35;;;;;;;;;;;;;;;32.36;32.83;97846.00;5068784;28;20299;-93
2023/06/10 00:35:01;;;;;;;;;;;;;;;32.02;33.78;97853.31;5075973;28;20014;-94
2023/06/10 00:37:29;;;;;;;;;;;;;;;31.60;34.14;97844.34;5075247;28;19974;-95
2023/06/10 00:39:55;;;;;;;;;;;;;;;30.62;36.35;97854.84;5071441;28;20018;-94
2023/06/10 00:42:23;;;;;;;;;;;;;;;30.17;37.17;97846.66;5075577;28;20433;-95
2023/06/10 00:44:50;;;;;;;;;;;;;;;30.13;37.40;97851.69;5075688;28;19919;-94
2023/06/10 00:47:16;;;;;;;;;;;;;;;29.97;37.90;97852.09;5070268;28;20062;-94
2023/06/10 00:49:43;;;;;;;;;;;;;;;29.48;39.34;97860.91;5062404;28;19916;-93
2023/06/10 00:52:10;;;;;;;;;;;;;;;29.42;39.23;97860.78;5060713;28;19913;-93
2023/06/10 00:54:37;;;;;;;;;;;;;;;29.63;38.84;97863.88;5060363;28;20053;-94
2023/06/10 00:57:04;;;;;;;;;;;;;;;29.33;39.62;97872.13;5074756;28;19921;-94
2023/06/10 00:59:30;;;;;;;;;;;;;;;28.68;41.22;97881.09;5061553;28;20320;-94
2023/06/10 01:01:56;;;;;;;;;;;;;;;28.69;41.13;97877.03;5045971;28;20368;-95
2023/06/10 01:04:23;;;;;;;;;;;;;;;29.23;39.82;97879.06;5046393;28;19920;-95
2023/06/10 01:06:57;;;;;;;;;;;;;;;29.65;38.93;97872.66;5055499;28;19953;-95
2023/06/10 01:09:41;;;;;;;;;;;;;;;29.85;38.67;97870.88;5073721;28;20070;-94
2023/06/10 01:12:11;;;;;;;;;;;;;;;30.11;37.95;97868.38;5074285;28;19917;-94
2023/06/10 01:14:38;;;;;;;;;;;;;;;30.68;36.58;97867.09;5071641;28;19917;-94
2023/06/10 01:17:04;;;;;;;;;;;;;;;31.17;35.82;97868.56;5072959;28;20407;-94
2023/06/10 01:19:31;;;;;;;;;;;;;;;31.62;34.48;97862.47;5063035;28;19925;-94
2023/06/10 01:22:00;;;;;;;;;;;;;;;31.79;34.09;97866.31;5066204;28;20018;-94
2023/06/10 01:24:26;;;;;;;;;;;;;;;31.97;34.00;97874.63;5072978;28;19928;-96
2023/06/10 01:26:53;;;;;;;;;;;;;;;31.99;33.84;97874.94;5073654;28;19928;-95
2023/06/10 01:29:30;;;;;;;;;;;;;;;32.21;33.38;97870.88;5072308;28;19928;-95
2023/06/10 01:32:05;;;;;;;;;;;;;;;32.15;33.20;97867.16;5072410;28;19924;-95
2023/06/10 01:34:32;;;;;;;;;;;;;;;32.30;33.25;97865.06;5067469;28;19927;-95
2023/06/10 01:36:59;;;;;;;;;;;;;;;32.34;33.27;97868.47;5071140;28;19920;-95
2023/06/10 01:39:25;;;;;;;;;;;;;;;32.33;33.27;97864.06;5063112;28;19964;-95
2023/06/10 01:41:53;;;;;;;;;;;;;;;32.25;32.94;97868.59;5069066;28;19970;-95
2023/06/10 01:44:19;;;;;;;;;;;;;;;32.13;33.29;97861.19;5065543;28;20434;-95
2023/06/10 01:46:45;;;;;;;;;;;;;;;32.28;32.80;97864.78;5068105;28;19963;-95
2023/06/10 01:49:11;;;;;;;;;;;;;;;32.54;32.74;97871.34;5060868;28;19963;-95
2023/06/10 01:51:37;;;;;;;;;;;;;;;32.41;32.76;97868.84;5070544;28;19920;-95
2023/06/10 01:54:03;;;;;;;;;;;;;;;32.21;32.98;97865.97;5074174;28;20330;-95
2023/06/10 01:56:29;;;;;;;;;;;;;;;32.42;32.73;97870.38;5073015;28;19924;-95
2023/06/10 01:58:58;;;;;;;;;;;;;;;32.50;32.80;97867.94;5065302;28;19921;-95
2023/06/10 02:01:28;;;;;;;;;;;;;;;32.66;32.19;97871.00;5062140;28;19921;-95
2023/06/10 02:03:54;;;;;;;;;;;;;;;32.79;32.17;97862.13;5068169;28;19921;-95
2023/06/10 02:06:20;;;;;;;;;;;;;;;32.91;31.92;97865.88;5072126;28;20299;-95
2023/06/10 02:08:46;;;;;;;;;;;;;;;32.93;32.36;97866.16;5064630;28;19932;-95
2023/06/10 02:11:12;;;;;;;;;;;;;;;32.83;32.12;97864.72;5071981;28;20414;-95
2023/06/10 02:13:38;;;;;;;;;;;;;;;32.96;31.93;97863.06;5067066;28;19970;-96
2023/06/10 02:16:05;;;;;;;;;;;;;;;32.98;32.05;97869.03;5067550;28;20003;-95
2023/06/10 02:18:31;;;;;;;;;;;;;;;32.85;32.43;97865.00;5073482;28;19920;-95
2023/06/10 02:20:57;;;;;;;;;;;;;;;32.40;33.09;97863.63;5055140;28;19923;-95
2023/06/10 02:23:24;;;;;;;;;;;;;;;32.20;33.18;97864.41;5069869;28;20299;-95
2023/06/10 02:25:50;;;;;;;;;;;;;;;32.22;33.12;97869.59;5064653;28;19925;-94
2023/06/10 02:28:16;;;;;;;;;;;;;;;32.25;33.45;97875.06;5067897;28;19920;-95
2023/06/10 02:30:42;;;;;;;;;;;;;;;32.31;33.05;97869.44;5068185;28;19974;-95
2023/06/10 02:33:11;;;;;;;;;;;;;;;32.23;33.26;97866.25;5060349;28;19935;-94
2023/06/10 02:35:39;;;;;;;;;;;;;;;32.23;33.24;97866.25;5066768;28;19928;-94
2023/06/10 02:38:05;;;;;;;;;;;;;;;32.07;33.86;97873.25;5066287;28;19974;-94
2023/06/10 02:40:31;;;;;;;;;;;;;;;32.26;33.48;97875.84;5062744;28;19916;-94
2023/06/10 02:42:58;;;;;;;;;;;;;;;32.32;33.40;97868.19;5069032;28;20426;-95
2023/06/10 02:45:24;;;;;;;;;;;;;;;32.05;33.51;97872.97;5069097;28;19920;-95
2023/06/10 02:47:50;;;;;;;;;;;;;;;31.63;34.24;97874.56;5063798;28;19943;-95
2023/06/10 02:50:16;;;;;;;;;;;;;;;31.54;34.62;97869.00;5073220;28;20369;-95
2023/06/10 02:52:43;;;;;;;;;;;;;;;31.06;35.75;97876.88;5067641;28;19927;-95
2023/06/10 02:55:09;;;;;;;;;;;;;;;30.99;35.79;97875.22;5053733;28;19925;-95
2023/06/10 02:57:35;;;;;;;;;;;;;;;31.16;35.57;97881.19;5071934;28;19920;-95
2023/06/10 03:00:04;;;;;;;;;;;;;;;31.01;35.61;97875.50;5073090;28;19920;-95
2023/06/10 03:02:31;;;;;;;;;;;;;;;31.38;35.18;97884.44;5066389;28;19925;-95
2023/06/10 03:04:57;;;;;;;;;;;;;;;31.60;34.95;97887.69;5070609;28;20379;-95
2023/06/10 03:07:23;;;;;;;;;;;;;;;31.29;35.39;97893.84;5066071;28;19991;-94
2023/06/10 03:09:50;;;;;;;;;;;;;;;31.13;35.72;97893.53;5070240;28;19917;-96
2023/06/10 03:12:16;;;;;;;;;;;;;;;31.02;36.02;97893.28;5068468;28;19970;-95
2023/06/10 03:14:42;;;;;;;;;;;;;;;30.37;37.15;97894.22;5069494;28;20048;-96
2023/06/10 03:17:08;;;;;;;;;;;;;;;30.51;36.92;97899.97;5068994;28;19966;-95
2023/06/10 03:19:34;;;;;;;;;;;;;;;30.91;36.38;97901.59;5069399;28;19921;-95
2023/06/10 03:22:10;;;;;;;;;;;;;;;31.22;35.38;97896.28;5074331;28;19927;-95
2023/06/10 03:24:39;;;;;;;;;;;;;;;31.20;35.26;97901.66;5073365;28;19920;-95
2023/06/10 03:27:14;;;;;;;;;;;;;;;31.32;35.22;97900.59;5070630;28;19920;-95
2023/06/10 03:29:40;;;;;;;;;;;;;;;30.82;36.09;97898.78;5072320;28;20037;-94
2023/06/10 03:32:07;;;;;;;;;;;;;;;30.87;36.20;97903.78;5068107;28;19920;-94
2023/06/10 03:34:33;;;;;;;;;;;;;;;30.78;36.30;97905.44;5071579;28;20033;-96
2023/06/10 03:36:59;;;;;;;;;;;;;;;30.91;36.22;97893.06;5065927;28;19921;-95
2023/06/10 03:39:28;;;;;;;;;;;;;;;30.55;37.04;97899.78;5065619;28;19920;-95
2023/06/10 03:41:55;;;;;;;;;;;;;;;30.82;36.55;97896.75;5070816;28;20070;-96
2023/06/10 03:44:21;;;;;;;;;;;;;;;31.14;36.06;97897.91;5071454;28;20257;-96
2023/06/10 03:46:47;;;;;;;;;;;;;;;31.32;35.53;97898.53;5053181;28;19921;-96
2023/06/10 03:49:15;;;;;;;;;;;;;;;31.33;35.66;97908.59;5066662;28;20677;-95
2023/06/10 03:51:40;;;;;;;;;;;;;;;31.45;35.25;97903.16;5073376;28;19916;-95
2023/06/10 03:54:06;;;;;;;;;;;;;;;31.21;35.70;97908.88;5070982;28;20334;-96
2023/06/10 03:56:32;;;;;;;;;;;;;;;31.34;35.71;97903.72;5069241;28;19924;-95
2023/06/10 03:58:59;;;;;;;;;;;;;;;31.41;35.36;97906.94;5058160;28;19916;-96
2023/06/10 04:01:25;;;;;;;;;;;;;;;31.44;35.63;97910.88;5070348;28;20019;-96
2023/06/10 04:03:53;;;;;;;;;;;;;;;31.42;35.56;97905.72;5075349;28;19959;-95
2023/06/10 04:06:21;;;;;;;;;;;;;;;31.10;35.98;97912.28;5075508;28;20296;-95
2023/06/10 04:08:47;;;;;;;;;;;;;;;30.65;37.20;97909.78;5075346;28;19946;-96
2023/06/10 04:11:13;;;;;;;;;;;;;;;30.75;37.01;97916.97;5070653;28;19921;-95
2023/06/10 04:13:39;;;;;;;;;;;;;;;30.59;37.08;97911.72;5069921;28;19920;-95
2023/06/10 04:16:05;;;;;;;;;;;;;;;30.41;37.63;97921.09;5075153;28;19947;-95
2023/06/10 04:18:31;;;;;;;;;;;;;;;30.40;37.72;97925.22;5071797;28;19924;-95
2023/06/10 04:20:57;;;;;;;;;;;;;;;30.46;37.43;97922.50;5076026;28;19917;-94
2023/06/10 04:23:23;;;;;;;;;;;;;;;30.42;37.86;97924.72;5076097;28;19916;-95
2023/06/10 04:25:49;;;;;;;;;;;;;;;29.76;40.55;97918.25;5075877;28;19924;-93
2023/06/10 04:28:15;;;;;;;;;;;;;;;30.01;38.51;97920.69;5070986;28;19962;-95
2023/06/10 04:30:41;;;;;;;;;;;;;;;29.53;39.97;97916.88;5063363;28;19921;-95
2023/06/10 04:33:08;;;;;;;;;;;;;;;27.99;44.87;97914.66;5075949;28;19923;-94
2023/06/10 04:35:35;;;;;;;;;;;;;;;27.60;45.68;97918.22;5075123;28;19917;-94
2023/06/10 04:38:03;;;;;;;;;;;;;;;28.46;42.97;97924.84;5074741;28;19916;-95
2023/06/10 04:40:29;;;;;;;;;;;;;;;28.75;42.34;97923.16;5071361;28;19921;-95
2023/06/10 04:42:55;;;;;;;;;;;;;;;29.12;41.09;97932.47;5069954;28;19970;-94
2023/06/10 04:45:21;;;;;;;;;;;;;;;29.20;41.31;97933.72;5071272;28;19968;-94
2023/06/10 04:47:47;;;;;;;;;;;;;;;28.65;43.79;97935.75;5048854;28;20027;-94
2023/06/10 04:50:13;;;;;;;;;;;;;;;29.78;39.69;97933.47;5070786;28;19920;-95
2023/06/10 04:52:41;;;;;;;;;;;;;;;30.25;39.03;97929.97;5072339;28;20402;-95
2023/06/10 04:55:07;;;;;;;;;;;;;;;29.39;40.28;97940.16;5068068;28;19924;-95
2023/06/10 04:57:33;;;;;;;;;;;;;;;29.42;40.38;97945.66;5064012;28;19917;-94
2023/06/10 05:00:00;;;;;;;;;;;;;;;28.87;43.68;97940.47;5075414;28;19912;-95
2023/06/10 05:02:26;;;;;;;;;;;;;;;28.94;41.48;97948.66;5073964;28;19917;-94
2023/06/10 05:04:53;;;;;;;;;;;;;;;29.11;41.31;97941.41;5056029;28;20014;-92
2023/06/10 05:07:19;;;;;;;;;;;;;;;29.35;40.28;97957.31;5074696;28;19917;-95
2023/06/10 05:09:45;;;;;;;;;;;;;;;28.91;42.64;97956.03;5074882;28;20426;-95
2023/06/10 05:12:11;;;;;;;;;;;;;;;29.55;39.98;97959.59;5073999;28;19924;-96
2023/06/10 05:14:37;;;;;;;;;;;;;;;29.82;39.61;97953.16;5055971;28;19924;-96
2023/06/10 05:17:05;;;;;;;;;;;;;;;28.98;40.90;97958.53;5072397;28;20011;-96
2023/06/10 05:19:32;;;;;;;;;;;;;;;29.09;40.87;97963.72;5067644;28;19920;-95
2023/06/10 05:21:58;;;;;;;;;;;;;;;28.43;43.44;97968.13;5054471;28;19928;-95
2023/06/10 05:24:24;;;;;;;;;;;;;;;28.99;42.06;97959.31;5059582;28;19920;-95
2023/06/10 05:26:50;;;;;;;;;;;;;;;28.38;43.55;97963.13;5072665;28;19927;-94
2023/06/10 05:29:16;;;;;;;;;;;;;;;28.25;44.08;97956.78;5073382;28;20404;-94
2023/06/10 05:31:42;;;;;;;;;;;;;;;27.42;46.45;97962.44;5060832;28;19948;-94
2023/06/10 05:34:08;;;;;;;;;;;;;;;26.96;48.56;97956.41;5066548;28;19935;-95
2023/06/10 05:36:34;;;;;;;;;;;;;;;27.86;47.22;97961.94;5071327;28;19927;-92
2023/06/10 05:39:00;;;;;;;;;;;;;;;27.54;46.56;97962.34;5062055;28;19979;-94
2023/06/10 05:41:26;;;;;;;;;;;;;;;28.65;43.44;97963.19;5065235;28;19920;-92
2023/06/10 05:43:52;;;;;;;;;;;;;;;29.11;41.85;97970.47;5059417;28;19921;-90
2023/06/10 05:46:21;;;;;;;;;;;;;;;28.72;42.81;97963.69;5065071;28;19925;-91
2023/06/10 05:48:47;;;;;;;;;;;;;;;29.45;40.36;97975.06;5058920;28;19927;-92
2023/06/10 05:51:13;;;;;;;;;;;;;;;29.58;42.89;97975.66;5055134;28;20015;-90
2023/06/10 05:53:39;;;;;;;;;;;;;;;28.21;43.58;97973.88;5056005;28;20349;-93
2023/06/10 05:56:05;;;;;;;;;;;;;;;28.43;43.29;97982.25;5052313;28;19928;-91
2023/06/10 05:58:31;;;;;;;;;;;;;;;29.24;40.48;97978.84;5070976;28;19928;-91
2023/06/10 06:00:57;;;;;;;;;;;;;;;29.11;41.59;97976.13;5062555;28;19925;-92
2023/06/10 06:03:23;;;;;;;;;;;;;;;27.51;49.74;97968.16;5055217;28;19920;-93
2023/06/10 06:05:49;;;;;;;;;;;;;;;27.42;51.30;97974.53;5068994;28;19921;-91
2023/06/10 06:08:18;;;;;;;;;;;;;;;27.33;45.70;97983.66;5071699;28;19964;-92
2023/06/10 06:10:47;;;;;;;;;;;;;;;29.01;42.16;97973.78;5068127;28;19927;-94
2023/06/10 06:13:13;;;;;;;;;;;;;;;29.32;41.13;97983.69;5070939;28;19968;-91
2023/06/10 06:15:39;;;;;;;;;;;;;;;29.32;41.68;97986.53;5071516;28;19928;-91
2023/06/10 06:18:05;;;;;;;;;;;;;;;29.76;40.57;97983.34;5073806;28;19928;-91
2023/06/10 06:20:31;;;;;;;;;;;;;;;29.14;43.60;97978.03;5071686;28;20014;-93
2023/06/10 06:22:57;;;;;;;;;;;;;;;29.44;40.46;97984.78;5067220;28;20380;-92
2023/06/10 06:25:23;;;;;;;;;;;;;;;29.37;41.38;97973.78;5070130;28;19929;-91
2023/06/10 06:27:49;;;;;;;;;;;;;;;29.50;41.58;97980.06;5067255;28;19928;-90
2023/06/10 06:30:15;;;;;;;;;;;;;;;30.15;41.92;97976.63;5065132;28;20284;-91
2023/06/10 06:32:41;;;;;;;;;;;;;;;28.19;46.27;97993.31;5064201;28;19924;-93
2023/06/10 06:35:07;;;;;;;;;;;;;;;27.64;48.76;97988.59;5056165;28;21438;-95
2023/06/10 06:37:34;;;;;;;;;;;;;;;27.35;52.83;97997.31;5056576;28;19921;-92
2023/06/10 06:40:00;;;;;;;;;;;;;;;28.33;43.25;97998.41;5063499;28;19974;-91
2023/06/10 06:42:26;;;;;;;;;;;;;;;28.77;44.29;98006.72;5063805;28;20281;-89
2023/06/10 06:44:52;;;;;;;;;;;;;;;28.54;48.96;97999.56;5053496;28;19920;-90
2023/06/10 06:47:19;;;;;;;;;;;;;;;28.85;43.34;98005.94;5064516;28;19917;-91
2023/06/10 06:49:46;;;;;;;;;;;;;;;29.17;42.71;98002.50;5054618;28;19921;-92
2023/06/10 06:52:13;;;;;;;;;;;;;;;29.49;43.17;98009.63;5058835;28;20009;-90
2023/06/10 06:54:39;;;;;;;;;;;;;;;29.63;40.14;98011.00;5066893;28;20273;-90
2023/06/10 06:57:05;;;;;;;;;;;;;;;29.22;44.30;98007.56;5061757;28;19972;-91
2023/06/10 06:59:31;;;;;;;;;;;;;;;30.02;40.14;98007.19;5055507;28;19928;-91
2023/06/10 07:01:58;;;;;;;;;;;;;;;30.33;39.66;98004.91;5053397;28;19921;-91
2023/06/10 07:04:24;;;;;;;;;;;;;;;29.49;41.78;98018.09;5060957;28;19920;-91
2023/06/10 07:06:50;;;;;;;;;;;;;;;30.48;39.67;98005.75;5064601;28;19921;-92
2023/06/10 07:09:16;;;;;;;;;;;;;;;30.09;41.09;98018.16;5061871;28;19939;-92
2023/06/10 07:11:42;;;;;;;;;;;;;;;29.32;48.02;98026.13;5063536;28;19975;-91
2023/06/10 07:14:08;;;;;;;;;;;;;;;27.51;54.42;98024.56;5055736;28;19924;-89
2023/06/10 07:16:34;;;;;;;;;;;;;;;27.32;56.26;98023.59;5054096;28;19921;-89
2023/06/10 07:19:00;;;;;;;;;;;;;;;28.34;44.04;98033.06;5059275;28;20062;-92
2023/06/10 07:21:28;;;;;;;;;;;;;;;29.28;44.17;98030.38;5066060;28;19999;-91
2023/06/10 07:23:54;;;;;;;;;;;;;;;30.55;39.44;98030.91;5062304;28;20383;-93
2023/06/10 07:26:22;;;;;;;;;;;;;;;29.67;39.83;98031.44;5071907;28;19951;-91
2023/06/10 07:28:48;;;;;;;;;;;;;;;30.06;39.26;98030.44;5071819;28;20392;-91
2023/06/10 07:31:14;;;;;;;;;;;;;;;31.26;38.66;98024.53;5066146;28;20043;-92
2023/06/10 07:33:40;;;;;;;;;;;;;;;30.76;37.99;98027.03;5066632;28;20380;-91
2023/06/10 07:36:06;;;;;;;;;;;;;;;31.23;39.35;98019.81;5064794;28;20406;-92
2023/06/10 07:38:32;;;;;;;;;;;;;;;31.73;38.15;98021.63;5070636;28;19921;-93
2023/06/10 07:40:58;;;;;;;;;;;;;;;31.41;36.88;98023.28;5073593;28;20283;-91
2023/06/10 07:43:24;;;;;;;;;;;;;;;30.75;37.99;98025.47;5074539;28;19940;-94
2023/06/10 07:45:51;;;;;;;;;;;;;;;31.51;36.85;98024.03;5051267;28;19920;-94
2023/06/10 07:48:17;;;;;;;;;;;;;;;29.47;46.46;98034.78;5075735;28;19940;-93
2023/06/10 07:50:43;;;;;;;;;;;;;;;29.15;52.53;98029.72;5073847;28;19920;-90
2023/06/10 07:53:09;;;;;;;;;;;;;;;29.38;47.99;98034.78;5070459;28;19928;-91
2023/06/10 07:55:35;;;;;;;;;;;;;;;29.84;40.79;98038.38;5064036;28;19940;-93
2023/06/10 07:58:01;;;;;;;;;;;;;;;29.36;43.75;98038.06;5063882;28;19925;-92
2023/06/10 08:00:30;;;;;;;;;;;;;;;28.93;52.08;98031.84;5068602;28;19932;-90
2023/06/10 08:02:56;;;;;;;;;;;;;;;29.14;44.66;98039.44;5028931;28;19928;-90
2023/06/10 08:05:22;;;;;;;;;;;;;;;29.27;40.92;98043.72;5071267;28;19928;-92
2023/06/10 08:07:48;;;;;;;;;;;;;;;30.87;37.98;98040.69;5068611;28;19921;-93
2023/06/10 08:10:14;;;;;;;;;;;;;;;30.44;39.55;98050.50;5067594;28;19999;-93
2023/06/10 08:12:40;;;;;;;;;;;;;;;30.33;40.06;98050.22;5069696;28;19920;-92
2023/06/10 08:15:07;;;;;;;;;;;;;;;30.19;44.61;98050.09;5060614;28;19969;-91
2023/06/10 08:17:33;;;;;;;;;;;;;;;29.12;43.60;98048.41;5065707;28;20384;-93
2023/06/10 08:19:59;;;;;;;;;;;;;;;30.23;44.79;98047.84;5065462;28;19927;-93
2023/06/10 08:22:25;;;;;;;;;;;;;;;30.12;46.27;98050.41;5064815;28;19924;-93
2023/06/10 08:24:51;;;;;;;;;;;;;;;30.91;39.95;98043.34;5064395;28;19960;-93
2023/06/10 08:27:17;;;;;;;;;;;;;;;31.22;36.16;98046.63;5065732;28;20628;-94
2023/06/10 08:29:43;;;;;;;;;;;;;;;30.81;38.96;98044.66;5057147;28;19927;-94
2023/06/10 08:32:09;;;;;;;;;;;;;;;30.94;45.26;98043.19;5056041;28;19917;-92
2023/06/10 08:34:35;;;;;;;;;;;;;;;30.78;39.71;98040.75;5070738;28;19931;-93
2023/06/10 08:37:02;;;;;;;;;;;;;;;30.86;38.59;98047.63;5070435;28;20383;-94
2023/06/10 08:39:31;;;;;;;;;;;;;;;31.38;41.63;98049.81;5043342;28;19928;-93
2023/06/10 08:42:10;;;;;;;;;;;;;;;31.70;37.74;98048.16;5068302;28;19931;-93
2023/06/10 08:44:38;;;;;;;;;;;;;;;30.84;38.10;98047.31;5063392;28;19921;-94
2023/06/10 08:47:10;;;;;;;;;;;;;;;31.47;36.28;98046.13;5075608;28;20376;-91
2023/06/10 08:49:38;;;;;;;;;;;;;;;31.15;36.97;98042.13;5071728;28;19920;-91
2023/06/10 08:52:06;;;;;;;;;;;;;;;31.05;37.99;98051.16;5070530;28;19925;-91
2023/06/10 08:54:35;;;;;;;;;;;;;;;31.55;36.48;98049.41;5045707;28;19963;-92
2023/06/10 08:57:03;;;;;;;;;;;;;;;32.30;36.84;98049.78;5047868;28;20494;-93
2023/06/10 08:59:29;;;;;;;;;;;;;;;32.64;35.66;98046.22;5065632;28;19940;-91
2023/06/10 09:01:55;;;;;;;;;;;;;;;32.63;35.80;98041.78;5066681;28;20022;-91
2023/06/10 09:04:23;;;;;;;;;;;;;;;32.29;35.41;98046.16;5068323;28;20287;-92
2023/06/10 09:06:50;;;;;;;;;;;;;;;32.20;40.86;98040.56;5056757;28;19916;-91
2023/06/10 09:09:16;;;;;;;;;;;;;;;30.96;38.17;98051.22;5058594;28;19920;-92
2023/06/10 09:11:42;;;;;;;;;;;;;;;29.75;43.58;98050.47;5070966;28;19978;-90
2023/06/10 09:14:08;;;;;;;;;;;;;;;30.49;40.11;98041.34;5074911;28;19927;-93
2023/06/10 09:16:35;;;;;;;;;;;;;;;31.38;38.82;98040.50;5074406;28;20425;-92
2023/06/10 09:19:07;;;;;;;;;;;;;;;32.59;37.66;98035.53;5069740;28;19928;-92
2023/06/10 09:21:36;;;;;;;;;;;;;;;33.32;35.05;98033.25;5057168;28;19947;-91
2023/06/10 09:24:02;;;;;;;;;;;;;;;32.97;35.49;98028.84;5060052;28;19932;-92
2023/06/10 09:26:29;;;;;;;;;;;;;;;33.12;34.97;98027.53;5075098;28;20039;-92
2023/06/10 09:29:13;;;;;;;;;;;;;;;32.94;40.67;98029.84;5073653;28;19920;-93
2023/06/10 09:31:40;;;;;;;;;;;;;;;33.08;36.75;98021.28;5074360;28;20402;-92
2023/06/10 09:34:06;;;;;;;;;;;;;;;33.38;34.72;98024.75;5071589;28;19920;-92
2023/06/10 09:36:33;;;;;;;;;;;;;;;34.14;32.93;98023.31;5074417;28;19951;-93
2023/06/10 09:38:59;;;;;;;;;;;;;;;31.59;44.60;98022.38;5057641;28;20303;-90
2023/06/10 09:41:32;;;;;;;;;;;;;;;31.07;43.43;98028.75;5073016;28;19967;-90
2023/06/10 09:43:58;;;;;;;;;;;;;;;31.38;36.72;98026.31;5053099;28;19917;-93
2023/06/10 09:46:30;;;;;;;;;;;;;;;31.15;39.08;98030.75;5041828;28;20277;-92
2023/06/10 09:48:57;;;;;;;;;;;;;;;32.35;36.05;98029.19;5073626;28;20369;-92
2023/06/10 09:51:24;;;;;;;;;;;;;;;32.82;34.59;98033.81;5068109;28;19928;-92
2023/06/10 09:53:53;;;;;;;;;;;;;;;32.95;34.20;98032.22;5062907;28;19932;-91
2023/06/10 09:56:19;;;;;;;;;;;;;;;32.74;35.10;98027.75;5072336;28;19925;-91
2023/06/10 09:58:46;;;;;;;;;;;;;;;32.99;34.82;98034.81;5071208;28;19924;-92
2023/06/10 10:01:13;;;;;;;;;;;;;;;31.73;37.87;98035.81;5072411;28;20406;-93
2023/06/10 10:03:46;;;;;;;;;;;;;;;30.50;46.36;98036.47;5071741;28;20368;-92
2023/06/10 10:06:13;;;;;;;;;;;;;;;31.33;36.50;98032.66;5051035;28;19946;-92
2023/06/10 10:08:39;;;;;;;;;;;;;;;32.17;35.25;98035.06;5065835;28;19959;-93
2023/06/10 10:11:05;;;;;;;;;;;;;;;31.48;36.44;98030.69;5064107;28;20395;-93
2023/06/10 10:13:35;;;;;;;;;;;;;;;31.37;36.15;98036.09;5070977;28;19992;-91
2023/06/10 10:16:06;;;;;;;;;;;;;;;30.87;37.53;98043.53;5068276;28;19946;-93
2023/06/10 10:18:34;;;;;;;;;;;;;;;29.46;46.68;98041.66;5063897;28;19943;-88
2023/06/10 10:21:02;;;;;;;;;;;;;;;28.06;49.25;98043.44;5068403;28;19943;-86
2023/06/10 10:23:34;;;;;;;;;;;;;;;27.54;48.62;98046.97;5058601;28;19955;-90
2023/06/10 10:26:04;;;;;;;;;;;;;;;27.55;48.11;98044.94;5063221;28;19932;-88
2023/06/10 10:28:37;;;;;;;;;;;;;;;27.57;51.81;98042.44;5062401;28;19916;-91
2023/06/10 10:31:07;;;;;;;;;;;;;;;28.33;47.68;98051.28;5069085;28;20010;-89
2023/06/10 10:33:56;;;;;;;;;;;;;;;27.58;51.93;98053.28;5051978;28;19963;-93
2023/06/10 10:36:22;;;;;;;;;;;;;;;27.32;51.35;98043.34;5070554;28;19943;-89
2023/06/10 10:38:49;;;;;;;;;;;;;;;27.44;52.51;98053.81;5071580;28;19921;-92
2023/06/10 10:41:15;;;;;;;;;;;;;;;28.23;49.75;98049.66;5073331;28;20433;-94
2023/06/10 10:43:43;;;;;;;;;;;;;;;27.46;53.46;98048.50;5073917;28;19931;-93
2023/06/10 10:46:17;;;;;;;;;;;;;;;26.97;55.73;98050.19;5073510;28;19962;-94
2023/06/10 10:48:44;;;;;;;;;;;;;;;26.87;56.95;98040.06;5070768;28;19921;-94
2023/06/10 10:51:10;;;;;;;;;;;;;;;26.91;58.08;98052.03;5065132;28;19920;-93
2023/06/10 10:53:39;;;;;;;;;;;;;;;27.18;51.36;98044.63;5070687;28;20433;-93
2023/06/10 10:56:18;;;;;;;;;;;;;;;27.53;52.80;98048.25;5051819;28;19954;-92
2023/06/10 10:59:01;;;;;;;;;;;;;;;27.93;51.19;98054.00;5064579;28;19920;-92
2023/06/10 11:01:39;;;;;;;;;;;;;;;28.30;50.14;98050.16;5067532;28;19975;-91
2023/06/10 11:04:07;;;;;;;;;;;;;;;28.13;50.38;98040.34;5063670;28;20019;-91
2023/06/10 11:06:33;;;;;;;;;;;;;;;29.22;51.93;98040.75;5055992;28;19921;-92
2023/06/10 11:09:00;;;;;;;;;;;;;;;28.96;49.69;98047.91;5049324;28;19927;-92
2023/06/10 11:11:27;;;;;;;;;;;;;;;27.88;54.72;98048.94;5067127;28;19927;-92
2023/06/10 11:14:06;;;;;;;;;;;;;;;27.20;60.19;98044.94;5073879;28;20011;-92
2023/06/10 11:16:43;;;;;;;;;;;;;;;26.81;60.01;98041.91;5073456;28;19925;-92
2023/06/10 11:19:09;;;;;;;;;;;;;;;27.53;55.96;98030.53;5056932;28;19920;-91
2023/06/10 11:21:57;;;;;;;;;;;;;;;27.21;56.08;98034.47;5052913;28;20438;-90
2023/06/10 11:24:23;;;;;;;;;;;;;;;26.86;60.26;98044.94;5069234;28;19921;-91
2023/06/10 11:26:49;;;;;;;;;;;;;;;27.56;56.82;98043.72;5070865;28;19921;-93
2023/06/10 11:29:15;;;;;;;;;;;;;;;26.74;57.72;98054.16;5073966;28;19927;-91
2023/06/10 11:31:43;;;;;;;;;;;;;;;27.22;55.68;98045.28;5076932;28;19939;-92
2023/06/10 11:34:09;;;;;;;;;;;;;;;28.58;46.89;98045.41;5070802;28;19920;-92
2023/06/10 11:36:37;;;;;;;;;;;;;;;27.45;57.06;98058.19;5075291;28;20023;-92
2023/06/10 11:39:04;;;;;;;;;;;;;;;26.71;57.16;98047.41;5065586;28;20292;-90
2023/06/10 11:41:31;;;;;;;;;;;;;;;26.53;60.66;98047.22;5076512;28;19927;-89
2023/06/10 11:44:01;;;;;;;;;;;;;;;26.50;58.60;98059.38;5074279;28;19982;-91
2023/06/10 11:46:27;;;;;;;;;;;;;;;27.03;57.53;98054.00;5069891;28;19921;-91
2023/06/10 11:48:54;;;;;;;;;;;;;;;27.85;55.14;98047.84;5075343;28;19999;-90
2023/06/10 11:51:20;;;;;;;;;;;;;;;27.64;52.83;98050.66;5053871;28;19932;-90
2023/06/10 11:53:49;;;;;;;;;;;;;;;28.35;49.56;98043.91;5068996;28;19929;-90
2023/06/10 11:56:19;;;;;;;;;;;;;;;28.54;50.62;98045.53;5074116;28;19947;-92
2023/06/10 11:58:51;;;;;;;;;;;;;;;29.33;50.23;98041.06;5070610;28;20294;-89
2023/06/10 12:01:22;;;;;;;;;;;;;;;28.34;52.95;98038.72;5073812;28;20364;-90
2023/06/10 12:03:48;;;;;;;;;;;;;;;28.20;47.52;98039.25;5072152;28;19943;-90
2023/06/10 12:06:14;;;;;;;;;;;;;;;27.81;59.75;98041.53;5072150;28;19920;-91
2023/06/10 12:08:43;;;;;;;;;;;;;;;27.88;57.36;98052.56;5074540;28;19931;-89
2023/06/10 12:11:09;;;;;;;;;;;;;;;27.48;51.11;98037.53;5063468;28;19928;-89
2023/06/10 12:13:36;;;;;;;;;;;;;;;27.71;56.14;98045.53;5068111;28;20407;-90
2023/06/10 12:16:09;;;;;;;;;;;;;;;28.74;54.43;98048.00;5055816;28;20031;-89
2023/06/10 12:18:35;;;;;;;;;;;;;;;27.93;53.61;98039.88;5073964;28;19921;-87
2023/06/10 12:21:03;;;;;;;;;;;;;;;28.37;47.70;98046.25;5069370;28;19928;-87
2023/06/10 12:23:29;;;;;;;;;;;;;;;29.32;42.06;98045.13;5063770;28;20007;-88
2023/06/10 12:25:55;;;;;;;;;;;;;;;28.96;52.86;98039.41;5070700;28;20027;-90
2023/06/10 12:28:25;;;;;;;;;;;;;;;28.88;51.20;98050.22;5066456;28;19932;-89
2023/06/10 12:30:51;;;;;;;;;;;;;;;29.45;48.87;98054.25;5062249;28;20058;-88
2023/06/10 12:33:21;;;;;;;;;;;;;;;28.39;50.95;98046.56;5075461;28;19916;-90
2023/06/10 12:35:48;;;;;;;;;;;;;;;29.10;46.08;98056.53;5073108;28;20375;-89
2023/06/10 12:38:21;;;;;;;;;;;;;;;28.54;51.02;98053.25;5055301;28;20415;-88
2023/06/10 12:40:47;;;;;;;;;;;;;;;28.08;54.63;98048.63;5069330;28;19916;-88
2023/06/10 12:43:19;;;;;;;;;;;;;;;29.42;43.86;98055.19;5066371;28;20437;-88
2023/06/10 12:45:45;;;;;;;;;;;;;;;29.48;43.81;98058.97;5068114;28;19950;-87
2023/06/10 12:48:24;;;;;;;;;;;;;;;30.32;39.92;98054.28;5068174;28;19921;-89